AirNav   Phillips 66 Aviation Fuel
 
 353 users online  

VG07 Rular Airport
Remington, Virginia, USA

GOING TO REMINGTON?


FAA INFORMATION EFFECTIVE 01 FEBRUARY 2018

Location

FAA Identifier: VG07
Lat/Long: 38-32-20.0000N / 077-49-42.0000W
38-32.333333N / 077-49.700000W
38.5388889 / -77.8283333
(estimated)
Elevation: 305 ft. / 93 m (estimated)
Variation: 09W (1995)
From city: 1 mile W of REMINGTON, VA
Time zone: UTC -5 (UTC -4 during Daylight Saving Time)
Zip code: 22508

Airport Operations

Airport use: Private use. Permission required prior to landing
Activation date: 09/1997
Control tower: no
ARTCC: WASHINGTON CENTER
FSS: LEESBURG FLIGHT SERVICE STATION
Attendance: UNATNDD
Wind indicator: yes
Segmented circle: no

Airport Communications

WX AWOS-3 at CJR (1.7 nm SW): 119.325 (540-727-0523)
WX AWOS-3 at HWY (6 nm NE): 120.350 (540-788-4078)
WX AWOS-3PT at HEF (18 nm NE): PHONE 703-361-6160
WX AWOS-3 at RMN (19 nm SE): 126.325 (540-657-8283)

Nearby radio navigation aids

VOR radial/distance  VOR name  Freq  Var
CSNr170/6.4CASANOVA VORTAC116.3006W
BRVr308/25.4BROOKE VORTAC114.5009W
LDNr143/25.9LINDEN VORTAC114.3006W
AMLr223/29.2ARMEL VOR/DME113.5008W
GVEr032/35.0GORDONSVILLE VORTAC115.6006W

 
NDB name  Hdg/Dist  Freq  Var  ID
NAILR045/6.235110WMSQ -- ... --.-
SHANNON323/24.123710WEZF . --.. ..-.
GOODWIN LAKE188/24.922708WGDX --. -.. -..-
CAVERNS117/31.724509WLUA .-.. ..- .-
DAVEE267/34.522309WDAA -.. .- .-
OXONN261/39.933211WDCA -.. -.-. .-

Airport Services

Runway Information

Runway 14/32

Dimensions: 1500 x 75 ft. / 457 x 23 m
Surface: turf
RUNWAY 14  RUNWAY 32
Traffic pattern: leftright

Airport Ownership and Management from official FAA records

Ownership: Privately-owned
Owner: LARRY L. SETTI
12028 FREEMAN'S FORD ROAD
REMINGTON, VA 22734
Phone 540-439-2044
Manager: LARRY L. SETTI
12028 FREEMAN'S FORD ROAD
REMINGTON, VA 22734
Phone 540-439-2044
OTHER EMAIL: FITEAFOU@GMAIL.COM

Airport Operational Statistics

Aircraft based on the field: 1
Single engine airplanes: 1
    

Instrument Procedures

There are no published instrument procedures at VG07.

Some nearby airports with instrument procedures:

KCJR - Culpeper Regional Airport (2 nm SW)
KHWY - Warrenton-Fauquier Airport (6 nm NE)
KHEF - Manassas Regional Airport/Harry P. Davis Field (18 nm NE)
KRMN - Stafford Regional Airport (19 nm SE)
KOMH - Orange County Airport (20 nm SW)
 
Loc | Ops | Rwys | IFR | FBO | Links
Com | Nav | Svcs | Stats | Notes

AirNav Hotels Sweepstakes
 
Area around VG07 (Rular Airport)
 
Road maps at: MapQuest Bing Google
 
Aerial photo
No photo
 
Sectional chart

 
Airport distance calculator
Flying to Rular Airport? Find the distance to fly.

From to VG07

Sunrise and sunset
Times for 22-Feb-2018
 Local
(UTC-5)
 Zulu
(UTC)
Morning civil twilight06:2711:27
Sunrise06:5411:54
Sunset17:5622:56
Evening civil twilight18:2223:22

Current date and time
Zulu (UTC)  22-Feb-2018 07:21:15
Local (UTC-5)  22-Feb-2018 02:21:15
 
METAR
KHWY 
6nm NE 
220655Z AUTO 02003KT 10SM OVC036 18/13 A3039 RMK AO2 T01770133
KCJR 
14nm W 
220655Z AUTO 02003KT 10SM SCT030 BKN034 OVC046 17/15 A3041 RMK AO2 T01730146
KHEF 
18nm NE 
220656Z AUTO 36007KT 10SM BKN032 OVC085 18/13 A3040 RMK AO2 SLP304 T01780133 PNO $
KRMN 
19nm SE 
220655Z AUTO 00000KT 10SM SCT040 BKN050 OVC090 18/18 A3043 RMK AO2 T01760176
TAF
KNYG 
26nm E 
2203/2303 21008KT 9999 SCT050 BKN100 OVC030 QNH3035INS FM221100 02007KT 6000 -SHRA BR BKN010 OVC030 QNH3043INS BECMG 2216/2218 03007KT 4800 SHRA BR SCT006 BKN010 OVC025 QNH3046INS T17/2205Z T07/2303Z
KIAD 
30nm NE 
220540Z 2206/2312 35008KT P6SM SCT025 OVC050 FM220800 36008G16KT P6SM BKN025 OVC050 FM221300 02007KT 5SM -RADZ BKN015 OVC025 FM221600 02007KT 5SM -RADZ BKN008 OVC015 FM230500 03005KT 2SM -RADZ BR BKN004 OVC008
NOTAMs
Click for the latest NOTAMs
NOTAMs are issued by the DoD/FAA and will open in a separate window not controlled by AirNav.

 

 
 

Would you like to see your business listed on this page?

 If your business provides an interesting product or service to pilots, flight crews, aircraft, or users of the Rular Airport, you should consider listing it here.  To start the listing process, click on the button below
 
Add a business
 

Other Pages about Rular Airport

Update a link
 
Copyright © AirNav, LLC. All rights reserved. Privacy Policy  Contact